Time;durP1;ratioP1;P1;durP2;ratioP2;P2;SDS_P1;SDS_P2;PMS_P1;PMS_P2;Temp;Humidity;BMP_temperature;BMP_pressure;BME280_temperature;BME280_humidity;BME280_pressure;Samples;Min_cycle;Max_cycle;Signal;HPM_P1;HPM_P2
2021/04/14 00:01:20;;;;;;;19.92;7.28;;;;;;;-0.50;67.16;100372.37;1746544;80;21531;-69
2021/04/14 00:03:47;;;;;;;22.37;6.33;;;;;;;-0.59;67.24;100359.45;1750647;79;21251;-69
2021/04/14 00:06:14;;;;;;;18.85;6.03;;;;;;;-0.66;67.32;100357.70;1748978;81;21657;-69
2021/04/14 00:08:41;;;;;;;14.53;5.40;;;;;;;-0.71;67.41;100359.78;1744294;81;21237;-69
2021/04/14 00:11:15;;;;;;;19.52;6.12;;;;;;;-0.73;67.48;100355.09;1754556;79;21215;-69
2021/04/14 00:13:44;;;;;;;23.73;6.37;;;;;;;-0.75;67.54;100346.52;1745127;79;21818;-69
2021/04/14 00:16:19;;;;;;;19.70;5.33;;;;;;;-0.74;67.62;100345.66;1747119;81;21932;-69
2021/04/14 00:18:46;;;;;;;15.93;5.80;;;;;;;-0.72;67.71;100347.82;1751323;79;21398;-69
2021/04/14 00:21:15;;;;;;;17.15;5.85;;;;;;;-0.69;67.86;100346.56;1749008;79;21233;-69
2021/04/14 00:23:42;;;;;;;13.55;5.78;;;;;;;-0.64;67.92;100348.30;1752072;79;21208;-69
2021/04/14 00:26:11;;;;;;;21.42;6.85;;;;;;;-0.64;67.79;100349.58;1749503;81;21238;-69
2021/04/14 00:28:38;;;;;;;17.95;6.33;;;;;;;-0.62;67.81;100353.88;1746929;81;21137;-69
2021/04/14 00:31:36;;;;;;;17.90;5.67;;;;;;;-0.61;67.92;100351.77;1748758;79;22697;-68
2021/04/14 00:34:15;;;;;;;23.45;5.87;;;;;;;-0.60;67.96;100352.62;1713441;82;21239;-69
2021/04/14 00:36:43;;;;;;;18.50;6.20;;;;;;;-0.60;67.95;100351.34;1706259;82;21282;-69
2021/04/14 00:39:23;;;;;;;14.10;5.70;;;;;;;-0.62;68.11;100347.89;1678311;82;21340;-69
2021/04/14 00:41:53;;;;;;;18.17;5.03;;;;;;;-0.65;68.26;100344.02;1697034;82;21805;-69
2021/04/14 00:44:21;;;;;;;15.80;6.45;;;;;;;-0.69;68.29;100342.72;1711654;82;21565;-69
2021/04/14 00:46:48;;;;;;;16.90;5.15;;;;;;;-0.69;68.41;100340.16;1718662;83;21278;-69
2021/04/14 00:49:15;;;;;;;20.97;5.20;;;;;;;-0.64;68.48;100338.03;1718528;83;21863;-69
2021/04/14 00:51:43;;;;;;;21.35;5.12;;;;;;;-0.64;68.48;100332.91;1717623;81;21537;-69
2021/04/14 00:54:12;;;;;;;19.30;5.25;;;;;;;-0.63;68.52;100337.20;1719072;81;21254;-69
2021/04/14 00:56:39;;;;;;;10.93;4.35;;;;;;;-0.60;68.56;100339.80;1709843;81;21623;-69
2021/04/14 00:59:06;;;;;;;17.35;5.08;;;;;;;-0.56;68.69;100333.83;1715122;83;21221;-69
2021/04/14 01:01:33;;;;;;;21.48;5.00;;;;;;;-0.57;68.74;100338.10;1717294;81;21105;-69
2021/04/14 01:04:00;;;;;;;;;;;;;;;-0.52;68.82;100335.59;1718912;82;21697;-69
2021/04/14 01:06:29;;;;;;;14.83;5.00;;;;;;;-0.49;68.94;100339.45;1718201;83;20228;-69
2021/04/14 01:08:58;;;;;;;18.82;5.33;;;;;;;-0.44;68.94;100340.35;1718338;83;21666;-69
2021/04/14 01:11:28;;;;;;;15.08;5.12;;;;;;;-0.44;68.93;100340.35;1717869;82;21248;-69
2021/04/14 01:13:55;;;;;;;13.08;4.75;;;;;;;-0.44;69.00;100337.78;1713875;82;21656;-69
2021/04/14 01:16:22;;;;;;;16.85;4.80;;;;;;;-0.44;69.02;100342.91;1713434;83;22238;-69
2021/04/14 01:18:49;;;;;;;15.08;4.87;;;;;;;-0.43;69.07;100343.34;1717953;83;21244;-69
2021/04/14 01:21:27;;;;;;;13.62;4.53;;;;;;;-0.41;69.22;100342.94;1718044;83;21406;-69
2021/04/14 01:23:54;;;;;;;17.12;4.47;;;;;;;-0.37;69.27;100347.22;1716086;82;21188;-70
2021/04/14 01:26:21;;;;;;;16.27;4.75;;;;;;;-0.28;69.34;100347.71;1714833;82;21244;-69
2021/04/14 01:28:48;;;;;;;20.12;5.12;;;;;;;-0.18;69.40;100348.65;1717552;82;21244;-69
2021/04/14 01:31:31;;;;;;;20.68;4.78;;;;;;;-0.13;69.46;100343.98;1718222;81;21215;-69
2021/04/14 01:33:48;;;;;;;14.83;4.72;;;;;;;-0.09;69.46;100346.13;1712334;81;21802;-69
2021/04/14 01:36:15;;;;;;;17.00;5.45;;;;;;;-0.05;69.52;100337.61;1719322;82;21260;-70
2021/04/14 01:38:42;;;;;;;16.32;4.35;;;;;;;-0.04;69.48;100339.31;1711277;82;21208;-69
2021/04/14 01:41:09;;;;;;;11.15;3.80;;;;;;;0.01;69.64;100335.08;1714475;81;21208;-69
2021/04/14 01:43:36;;;;;;;17.82;4.58;;;;;;;0.11;69.74;100330.83;1718684;83;21216;-69
2021/04/14 01:46:04;;;;;;;15.98;4.87;;;;;;;0.19;69.81;100332.58;1716063;83;21218;-69
2021/04/14 01:48:31;;;;;;;16.12;4.40;;;;;;;0.28;69.79;100328.34;1714763;83;21527;-69
2021/04/14 01:50:58;;;;;;;13.50;4.35;;;;;;;0.36;69.87;100316.39;1719198;81;21208;-69
2021/04/14 01:53:25;;;;;;;15.72;4.67;;;;;;;0.41;69.90;100318.55;1715646;83;21253;-69
2021/04/14 01:55:52;;;;;;;14.55;4.08;;;;;;;0.44;69.83;100319.84;1718044;82;21326;-69
2021/04/14 01:58:20;;;;;;;17.82;4.55;;;;;;;0.50;69.96;100318.57;1716340;82;22891;-69
2021/04/14 02:00:55;;;;;;;14.75;4.80;;;;;;;0.56;70.04;100309.62;1715468;82;21624;-69
2021/04/14 02:03:22;;;;;;;13.18;3.90;;;;;;;0.66;70.07;100311.34;1714003;82;21236;-69
2021/04/14 02:05:49;;;;;;;13.90;3.83;;;;;;;0.70;70.08;100303.64;1715386;82;21224;-69
2021/04/14 02:08:17;;;;;;;14.00;4.85;;;;;;;0.75;70.12;100305.80;1713904;82;21661;-69
2021/04/14 02:10:45;;;;;;;15.18;4.90;;;;;;;0.80;70.19;100307.95;1720231;81;21203;-69
2021/04/14 02:13:20;;;;;;;14.05;4.20;;;;;;;0.82;70.13;100306.25;1716614;82;21220;-69
2021/04/14 02:15:49;;;;;;;16.40;4.30;;;;;;;0.85;70.28;100308.83;1719316;81;21212;-69
2021/04/14 02:18:18;;;;;;;17.77;4.30;;;;;;;0.88;70.26;100310.11;1716526;81;21216;-69
2021/04/14 02:20:45;;;;;;;12.20;4.33;;;;;;;0.93;70.33;100303.27;1718743;81;21023;-69
2021/04/14 02:23:24;;;;;;;13.65;3.98;;;;;;;0.99;70.41;100307.12;1716857;83;22181;-69
2021/04/14 02:26:02;;;;;;;11.65;3.65;;;;;;;1.05;70.43;100304.55;1713054;81;21248;-69
2021/04/14 02:28:29;;;;;;;16.10;4.90;;;;;;;1.07;70.48;100307.99;1714678;82;21261;-69
2021/04/14 02:30:57;;;;;;;15.90;4.08;;;;;;;1.11;70.54;100299.41;1717197;82;21181;-69
2021/04/14 02:33:25;;;;;;;12.15;4.83;;;;;;;1.18;70.58;100300.72;1682278;83;21236;-69
2021/04/14 02:35:53;;;;;;;17.10;4.20;;;;;;;1.20;70.54;100302.84;1690488;83;21578;-69
2021/04/14 02:38:22;;;;;;;14.43;4.17;;;;;;;1.17;70.60;100295.98;1695419;83;21279;-69
2021/04/14 02:41:11;;;;;;;14.65;4.47;;;;;;;1.21;70.65;100299.44;1690265;83;21243;-70
2021/04/14 02:43:38;;;;;;;19.60;5.35;;;;;;;1.17;70.57;100302.84;1603628;88;21809;-67
2021/04/14 02:46:05;;;;;;;10.90;3.85;;;;;;;1.05;70.60;100299.41;1598753;88;21272;-66
2021/04/14 02:48:32;;;;;;;14.78;4.62;;;;;;;1.01;70.77;100294.25;1602592;88;21668;-66
2021/04/14 02:50:59;;;;;;;9.88;3.72;;;;;;;0.97;70.80;100303.69;1597990;87;21300;-67
2021/04/14 02:53:26;;;;;;;13.55;4.45;;;;;;;0.97;70.99;100303.69;1618723;87;21250;-67
2021/04/14 02:55:53;;;;;;;19.45;4.90;;;;;;;1.01;71.03;100302.85;1612495;86;22058;-67
2021/04/14 03:01:07;;;;;;;19.27;4.08;;;;;;;1.01;71.04;100301.56;1701260;82;22058;-66
2021/04/14 03:03:34;;;;;;;11.75;4.17;;;;;;;0.97;71.13;100303.69;1696090;82;21230;-67
2021/04/14 03:06:01;;;;;;;15.32;4.80;;;;;;;1.01;71.27;100300.68;1697340;82;21246;-66
2021/04/14 03:08:28;;;;;;;19.85;4.62;;;;;;;1.01;71.32;100301.97;1693043;83;21230;-67
2021/04/14 03:10:55;;;;;;;14.45;4.33;;;;;;;1.07;71.48;100301.56;1683569;83;21250;-66
2021/04/14 03:13:24;;;;;;;15.05;4.67;;;;;;;1.12;71.44;100300.27;1705928;83;21251;-67
2021/04/14 03:15:52;;;;;;;16.30;5.30;;;;;;;1.18;71.58;100304.58;1709161;82;21242;-67
2021/04/14 03:18:19;;;;;;;22.37;4.70;;;;;;;1.22;71.58;100301.14;1675690;83;21222;-67
2021/04/14 03:20:46;;;;;;;20.20;5.47;;;;;;;1.25;71.55;100299.84;1706898;81;22326;-67
2021/04/14 03:23:16;;;;;;;13.58;4.60;;;;;;;1.25;71.57;100298.56;1711022;82;21243;-67
2021/04/14 03:25:43;;;;;;;16.17;5.03;;;;;;;1.26;71.53;100302.84;1683805;83;21284;-67
2021/04/14 03:28:12;;;;;;;16.90;5.60;;;;;;;1.25;71.59;100295.98;1687289;83;21718;-67
2021/04/14 03:30:42;;;;;;;16.17;5.15;;;;;;;1.21;71.61;100288.71;1702176;82;21850;-67
2021/04/14 03:33:10;;;;;;;17.85;5.37;;;;;;;1.17;71.59;100295.13;1697638;83;21281;-66
2021/04/14 03:35:37;;;;;;;19.65;5.28;;;;;;;1.20;71.74;100297.70;1697521;82;21206;-67
2021/04/14 03:38:04;;;;;;;17.27;5.00;;;;;;;1.15;71.71;100299.41;1693026;82;21422;-67
2021/04/14 03:40:32;;;;;;;18.07;5.80;;;;;;;1.11;71.78;100301.13;1696681;82;21260;-67
2021/04/14 03:43:00;;;;;;;14.33;4.97;;;;;;;1.11;71.86;100303.70;1699077;82;21270;-66
2021/04/14 03:45:36;;;;;;;14.93;5.15;;;;;;;1.09;71.89;100306.29;1695706;82;21219;-67
2021/04/14 03:48:00;;;;;;;14.05;5.70;;;;;;;1.07;71.96;100305.42;1697010;82;21239;-66
2021/04/14 03:50:29;;;;;;;19.50;5.60;;;;;;;1.13;72.04;100305.00;1703232;82;21721;-67
2021/04/14 03:53:26;;;;;;;20.20;5.72;;;;;;;1.10;72.04;100307.99;1694124;82;21274;-67
2021/04/14 03:56:10;;;;;;;11.22;5.60;;;;;;;1.05;71.97;100305.84;1674732;84;21246;-69
2021/04/14 03:58:40;;;;;;;17.23;6.35;;;;;;;1.01;72.07;100308.39;1671929;83;21316;-69
2021/04/14 04:01:11;;;;;;;15.05;5.62;;;;;;;1.03;72.30;100308.83;1673006;83;21273;-69
2021/04/14 04:03:39;;;;;;;18.85;5.50;;;;;;;1.06;72.25;100308.83;1690067;83;21299;-69
2021/04/14 04:06:06;;;;;;;17.50;5.97;;;;;;;1.10;72.38;100310.56;1663634;84;21670;-69
2021/04/14 04:08:33;;;;;;;21.05;6.30;;;;;;;1.16;72.37;100311.44;1692051;83;21255;-69
2021/04/14 04:11:01;;;;;;;14.58;5.05;;;;;;;1.20;72.44;100308.84;1662525;84;21289;-69
2021/04/14 04:13:30;;;;;;;14.73;5.35;;;;;;;1.25;72.46;100309.70;1693087;83;22446;-69
2021/04/14 04:15:59;;;;;;;23.50;5.95;;;;;;;1.28;72.41;100319.14;1690915;83;21274;-69
2021/04/14 04:18:26;;;;;;;21.33;5.08;;;;;;;1.29;72.46;100318.30;1677977;83;21312;-69
2021/04/14 04:20:55;;;;;;;13.68;5.15;;;;;;;1.31;72.52;100319.14;1690759;83;24008;-69
2021/04/14 04:23:24;;;;;;;18.02;5.75;;;;;;;1.34;72.53;100326.85;1667782;83;21809;-69
2021/04/14 04:25:52;;;;;;;18.82;5.80;;;;;;;1.39;72.59;100330.29;1665820;85;21640;-69
2021/04/14 04:28:20;;;;;;;;;;;;;;;1.42;72.52;100329.00;1680273;84;22885;-69
2021/04/14 04:30:56;;;;;;;15.72;5.60;;;;;;;1.45;72.54;100327.70;1864720;74;23275;-68
2021/04/14 04:33:24;;;;;;;21.27;7.15;;;;;;;1.38;72.59;100329.88;1832443;75;21064;-68
2021/04/14 04:35:51;;;;;;;26.23;9.15;;;;;;;1.44;72.69;100331.16;1836159;75;21338;-68
2021/04/14 04:38:19;;;;;;;40.40;12.55;;;;;;;1.45;72.70;100325.13;1839199;75;21236;-68
2021/04/14 04:40:46;;;;;;;41.60;13.85;;;;;;;1.51;72.78;100335.45;1796427;77;21183;-67
2021/04/14 04:43:14;;;;;;;29.87;13.15;;;;;;;1.52;72.66;100335.87;1840431;75;21200;-68
2021/04/14 04:45:41;;;;;;;22.25;11.05;;;;;;;1.55;72.77;100336.30;1839131;77;21177;-68
2021/04/14 04:48:10;;;;;;;22.02;10.45;;;;;;;1.62;72.87;100335.85;1797945;77;21629;-68
2021/04/14 04:50:38;;;;;;;19.77;9.23;;;;;;;1.68;72.92;100342.27;1833133;75;21354;-68
2021/04/14 04:53:11;;;;;;;21.60;7.37;;;;;;;1.73;72.86;100346.55;1811235;77;22336;-68
2021/04/14 04:55:38;;;;;;;17.42;7.03;;;;;;;1.83;72.98;100343.55;1831861;75;21224;-68
2021/04/14 04:58:05;;;;;;;22.98;7.42;;;;;;;1.90;72.98;100336.23;1806305;77;21164;-68
2021/04/14 05:00:33;;;;;;;23.77;7.58;;;;;;;1.97;72.98;100343.09;1833827;75;21672;-68
2021/04/14 05:03:00;;;;;;;28.75;7.83;;;;;;;2.04;72.89;100348.22;1841162;76;21234;-68
2021/04/14 05:05:29;;;;;;;31.87;6.95;;;;;;;2.09;72.93;100341.34;1835381;75;25311;-68
2021/04/14 05:07:57;;;;;;;27.82;7.25;;;;;;;2.15;73.01;100340.03;1840982;77;21739;-68
2021/04/14 05:10:26;;;;;;;16.65;5.72;;;;;;;2.22;72.83;100345.61;1832150;77;21185;-68
2021/04/14 05:12:54;;;;;;;20.97;6.58;;;;;;;2.20;72.68;100349.91;1839590;77;21649;-68
2021/04/14 05:15:25;;;;;;;14.30;6.47;;;;;;;2.13;72.64;100345.62;1836584;75;22119;-67
2021/04/14 05:17:52;;;;;;;18.32;7.15;;;;;;;2.15;72.86;100352.92;1835295;75;21075;-68
2021/04/14 05:20:20;;;;;;;13.65;7.00;;;;;;;2.14;72.78;100351.22;1840099;76;28370;-73
2021/04/14 05:22:47;;;;;;;18.35;6.62;;;;;;;2.15;72.91;100350.34;1840870;75;21210;-73
2021/04/14 05:28:09;;;;;;;13.50;5.12;;;;;;;2.24;73.18;100349.90;1711133;82;21289;-81
2021/04/14 05:30:36;;;;;;;5.15;3.12;;;;;;;2.35;73.43;100360.17;1709139;82;21779;-81
2021/04/14 05:33:07;;;;;;;9.10;3.25;;;;;;;2.29;73.79;100357.59;1702274;82;21084;-83
2021/04/14 05:35:35;;;;;;;7.28;2.85;;;;;;;2.18;73.50;100357.62;1694538;83;22396;-82
2021/04/14 05:38:02;;;;;;;7.37;2.22;;;;;;;2.17;73.54;100358.50;1686024;83;21336;-83
2021/04/14 05:40:29;;;;;;;5.33;2.17;;;;;;;2.27;73.58;100366.19;1705035;82;22231;-77
2021/04/14 05:42:56;;;;;;;6.12;2.08;;;;;;;2.36;73.86;100372.19;1704393;82;21228;-79
2021/04/14 05:45:28;;;;;;;6.90;2.83;;;;;;;2.38;73.91;100365.31;1679157;83;21250;-83
2021/04/14 05:47:56;;;;;;;8.48;1.45;;;;;;;2.34;73.95;100358.44;1700087;82;22200;-85
2021/04/14 05:50:25;;;;;;;;;;;;;;;2.41;73.93;100362.73;1707308;82;21612;-81
2021/04/14 05:52:52;;;;;;;5.30;1.80;;;;;;;2.49;74.37;100361.82;1703443;82;20301;-75
2021/04/14 05:55:21;;;;;;;5.42;2.02;;;;;;;2.55;74.32;100365.66;1702762;82;21229;-75
2021/04/14 05:57:49;;;;;;;5.45;1.77;;;;;;;2.61;74.05;100359.20;1685635;83;21744;-74
2021/04/14 06:00:18;;;;;;;7.20;2.15;;;;;;;2.65;74.16;100362.18;1701330;82;21252;-74
2021/04/14 06:02:45;;;;;;;4.03;1.80;;;;;;;2.66;74.06;100362.59;1680151;83;21312;-75
2021/04/14 06:05:16;;;;;;;4.37;1.65;;;;;;;2.74;74.08;100356.97;1689153;83;21849;-74
2021/04/14 06:07:43;;;;;;;5.72;1.42;;;;;;;2.80;74.64;100363.41;1695533;82;21704;-75
2021/04/14 06:10:13;;;;;;;5.45;2.02;;;;;;;2.81;74.49;100362.53;1673650;82;21251;-76
2021/04/14 06:12:41;;;;;;;3.50;1.80;;;;;;;2.79;74.25;100366.83;1673795;82;21189;-74
2021/04/14 06:15:13;;;;;;;5.15;2.00;;;;;;;2.85;74.18;100364.22;1694828;82;21397;-74
2021/04/14 06:17:41;;;;;;;8.38;2.60;;;;;;;2.90;74.48;100358.61;1702907;82;21262;-75
2021/04/14 06:20:12;;;;;;;6.10;2.58;;;;;;;2.91;74.41;100361.63;1689101;82;21236;-76
2021/04/14 06:22:39;;;;;;;10.78;3.70;;;;;;;2.98;74.36;100360.30;1702077;82;21212;-76
2021/04/14 06:25:11;;;;;;;8.35;3.35;;;;;;;3.00;74.40;100362.44;1702698;82;21192;-75
2021/04/14 06:30:26;;;;;;;6.72;2.60;;;;;;;3.06;76.33;100362.40;1807582;77;28010;-75
2021/04/14 06:32:53;;;;;;;7.47;2.30;;;;;;;3.05;74.66;100368.41;1837489;75;20998;-77
2021/04/14 06:35:24;;;;;;;4.53;1.85;;;;;;;3.13;74.45;100366.64;1839048;75;22385;-77
2021/04/14 06:37:53;;;;;;;11.63;3.25;;;;;;;3.14;74.87;100371.80;1848671;75;21594;-74
2021/04/14 06:40:50;;;;;;;5.67;2.20;;;;;;;3.13;75.28;100382.12;1843760;75;21082;-74
2021/04/14 06:43:39;;;;;;;5.42;2.67;;;;;;;3.14;75.07;100368.38;1827587;75;21672;-74
2021/04/14 06:46:22;;;;;;;4.87;2.47;;;;;;;3.11;75.09;100378.72;1857342;75;21035;-74
2021/04/14 06:49:15;;;;;;;7.15;2.22;;;;;;;3.21;74.89;100380.34;1828198;75;21281;-74
2021/04/14 06:52:12;;;;;;;6.40;2.33;;;;;;;3.40;74.79;100382.81;1834285;75;21076;-74
2021/04/14 06:55:16;;;;;;;4.62;2.33;;;;;;;3.41;75.02;100385.36;1796301;78;22408;-73
2021/04/14 06:57:47;;;;;;;6.83;2.17;;;;;;;3.37;74.84;100386.27;1772420;79;21194;-74
2021/04/14 07:00:32;;;;;;;5.55;2.45;;;;;;;3.52;75.07;100382.70;1766961;80;21384;-74
2021/04/14 07:03:16;;;;;;;12.60;2.62;;;;;;;3.61;74.92;100392.95;1774867;79;21014;-75
2021/04/14 07:05:54;;;;;;;5.50;2.42;;;;;;;3.75;74.92;100385.97;1705885;82;21334;-75
2021/04/14 07:08:27;;;;;;;;;;;;;;;4.02;75.05;100386.57;1713609;82;21249;-75
2021/04/14 07:11:00;;;;;;;6.30;3.08;;;;;;;4.12;74.60;100380.45;1707884;81;20494;-74
2021/04/14 07:13:31;;;;;;;9.55;2.90;;;;;;;4.25;74.36;100392.34;1706165;82;21293;-75
2021/04/14 07:16:22;;;;;;;4.97;2.37;;;;;;;4.00;74.01;100383.14;1670295;83;22018;-75
2021/04/14 07:19:15;;;;;;;6.08;2.55;;;;;;;4.01;74.45;100381.84;1639840;84;21370;-74
2021/04/14 07:22:00;;;;;;;6.17;2.98;;;;;;;4.06;74.35;100386.95;1665186;85;21224;-74
2021/04/14 07:24:32;;;;;;;6.70;3.15;;;;;;;3.95;74.31;100381.03;1663838;84;21783;-74
2021/04/14 07:27:04;;;;;;;10.95;3.40;;;;;;;3.93;74.72;100384.09;1660924;84;21353;-75
2021/04/14 07:29:40;;;;;;;5.87;3.33;;;;;;;3.82;74.74;100384.18;1666581;84;21231;-74
2021/04/14 07:32:38;;;;;;;9.05;3.00;;;;;;;3.81;74.75;100393.66;1663910;84;21272;-74
2021/04/14 07:35:37;;;;;;;7.30;3.33;;;;;;;3.83;74.95;100395.36;1844459;75;27900;-74
2021/04/14 07:38:44;;;;;;;6.25;2.90;;;;;;;3.95;75.16;100392.66;1778578;78;21609;-74
2021/04/14 07:41:30;;;;;;;7.55;3.37;;;;;;;3.99;74.86;100391.77;1827177;76;22610;-74
2021/04/14 07:44:20;;;;;;;4.72;2.87;;;;;;;3.97;74.92;100405.13;1801921;78;21036;-74
2021/04/14 07:46:48;;;;;;;7.50;3.75;;;;;;;4.12;74.78;100408.03;1803165;78;21197;-75
2021/04/14 07:49:18;;;;;;;7.33;2.52;;;;;;;4.16;74.62;100401.94;1801649;78;21056;-74
2021/04/14 07:51:45;;;;;;;5.60;2.50;;;;;;;4.24;74.84;100400.98;1797820;78;21152;-75
2021/04/14 07:54:16;;;;;;;;;;;;;;;4.37;74.68;100403.43;1807361;78;21005;-74
2021/04/14 07:56:51;;;;;;;9.43;2.40;;;;;;;4.48;74.13;100407.63;1800284;78;20153;-75
2021/04/14 07:59:35;;;;;;;4.08;2.17;;;;;;;4.52;74.47;100405.86;1799393;78;21271;-75
2021/04/14 08:02:15;;;;;;;6.28;2.10;;;;;;;4.66;74.51;100409.13;1796245;78;21094;-76
2021/04/14 08:04:46;;;;;;;4.53;2.27;;;;;;;4.71;74.16;100418.99;1762121;78;21656;-74
2021/04/14 08:07:18;;;;;;;3.45;1.77;;;;;;;4.78;74.13;100412.44;1801997;78;21140;-74
2021/04/14 08:10:02;;;;;;;3.60;1.37;;;;;;;4.89;74.25;100410.58;1803728;78;21049;-74
2021/04/14 08:12:41;;;;;;;3.67;1.35;;;;;;;5.00;73.83;100412.58;1766411;80;21575;-74
2021/04/14 08:15:16;;;;;;;6.03;1.50;;;;;;;5.10;72.86;100416.77;1760455;79;21224;-74
2021/04/14 08:17:46;;;;;;;2.92;1.30;;;;;;;5.35;73.67;100412.55;1767532;79;21171;-75
2021/04/14 08:20:28;;;;;;;3.12;1.10;;;;;;;5.54;73.52;100412.65;1771555;78;21222;-75
2021/04/14 08:23:12;;;;;;;3.02;1.07;;;;;;;5.68;72.46;100412.88;1735580;80;21151;-75
2021/04/14 08:25:49;;;;;;;4.50;1.10;;;;;;;5.88;73.16;100410.83;1762510;80;21150;-74
2021/04/14 08:28:42;;;;;;;2.85;0.98;;;;;;;6.21;73.15;100420.20;1763210;79;21113;-75
2021/04/14 08:31:50;;;;;;;1.95;0.88;;;;;;;5.92;68.50;100428.03;1765517;79;21563;-75
2021/04/14 08:34:26;;;;;;;2.85;0.78;;;;;;;5.87;71.51;100411.70;1762762;80;21157;-77
2021/04/14 08:37:18;;;;;;;4.75;0.90;;;;;;;5.57;69.56;100419.11;1761276;80;21628;-81
2021/04/14 08:40:02;;;;;;;3.33;1.20;;;;;;;5.53;70.95;100430.37;1744323;80;21242;-78
2021/04/14 08:42:36;;;;;;;2.22;1.52;;;;;;;5.58;70.58;100427.28;1747435;80;21625;-81
2021/04/14 08:45:21;;;;;;;4.85;1.20;;;;;;;5.56;70.01;100434.21;1763213;78;21235;-77
2021/04/14 08:48:10;;;;;;;4.45;1.00;;;;;;;5.68;70.56;100423.24;1742309;80;21202;-77
2021/04/14 08:50:48;;;;;;;2.58;1.37;;;;;;;5.80;70.73;100421.32;1760519;80;21143;-82
2021/04/14 08:53:19;;;;;;;2.85;1.42;;;;;;;6.17;70.25;100430.23;1741756;80;21270;-85
2021/04/14 08:55:46;;;;;;;3.27;1.45;;;;;;;6.25;70.47;100431.80;1733714;80;21780;-82
2021/04/14 08:58:17;;;;;;;3.15;0.93;;;;;;;6.15;69.76;100434.59;1736533;80;21144;-80
2021/04/14 09:00:44;;;;;;;1.87;0.93;;;;;;;6.12;69.38;100432.05;1714149;81;21232;-88
2021/04/14 09:03:14;;;;;;;;;;;;;;;6.08;69.54;100430.37;1749299;81;21200;-83
2021/04/14 09:05:44;;;;;;;3.05;1.32;;;;;;;5.94;68.80;100434.09;1748301;79;22163;-89
2021/04/14 09:08:19;;;;;;;3.45;1.32;;;;;;;5.99;70.03;100436.16;1748537;80;21235;-76
2021/04/14 09:10:56;;;;;;;4.75;1.30;;;;;;;6.05;69.58;100429.58;1745339;81;21171;-76
2021/04/14 09:13:38;;;;;;;3.90;1.35;;;;;;;6.23;69.89;100422.34;1744011;81;21296;-77
2021/04/14 09:16:07;;;;;;;3.25;1.20;;;;;;;6.26;68.80;100422.28;1747512;79;21171;-77
2021/04/14 09:18:45;;;;;;;3.55;1.92;;;;;;;6.13;68.65;100429.86;1745073;81;21200;-74
2021/04/14 09:21:21;;;;;;;3.20;1.32;;;;;;;6.14;69.59;100436.33;1746288;81;21235;-75
2021/04/14 09:24:06;;;;;;;5.47;1.55;;;;;;;6.19;69.59;100426.73;1742634;81;21837;-74
2021/04/14 09:26:40;;;;;;;4.40;1.35;;;;;;;6.26;69.79;100430.06;1748122;81;21199;-74
2021/04/14 09:29:30;;;;;;;2.60;1.20;;;;;;;6.30;69.34;100426.52;1744302;79;21151;-74
2021/04/14 09:32:01;;;;;;;6.28;1.90;;;;;;;5.96;67.91;100429.70;1751715;81;21972;-74
2021/04/14 09:34:43;;;;;;;2.08;1.10;;;;;;;5.75;69.12;100428.76;1747676;81;21342;-78
2021/04/14 09:37:23;;;;;;;6.00;1.40;;;;;;;5.64;69.14;100429.37;1749740;81;22260;-74
2021/04/14 09:40:00;;;;;;;4.35;0.90;;;;;;;5.53;68.74;100424.34;1750922;81;21654;-74
2021/04/14 09:42:40;;;;;;;1.90;0.78;;;;;;;5.43;68.79;100422.32;1764374;79;21564;-74
2021/04/14 09:45:31;;;;;;;3.55;1.30;;;;;;;5.32;69.30;100420.33;1763234;79;21545;-75
2021/04/14 09:48:02;;;;;;;7.70;1.37;;;;;;;5.25;68.98;100434.26;1765070;80;21167;-75
2021/04/14 09:50:37;;;;;;;5.70;0.80;;;;;;;5.15;69.60;100429.22;1759293;80;21619;-75
2021/04/14 09:53:29;;;;;;;1.95;0.90;;;;;;;5.05;68.87;100435.83;1752791;80;21217;-75
2021/04/14 09:56:10;;;;;;;2.90;1.00;;;;;;;4.84;69.06;100439.53;1669996;84;21242;-75
2021/04/14 09:59:03;;;;;;;6.03;1.12;;;;;;;4.62;69.74;100441.09;1686057;84;21467;-74
2021/04/14 10:01:34;;;;;;;3.55;0.70;;;;;;;4.54;70.01;100442.91;1645955;85;21294;-75
2021/04/14 10:04:05;;;;;;;5.58;1.40;;;;;;;4.48;70.19;100446.83;1671647;84;21248;-74
2021/04/14 10:06:35;;;;;;;3.40;1.20;;;;;;;4.46;70.42;100440.41;1671413;84;21223;-75
2021/04/14 10:09:06;;;;;;;3.98;1.00;;;;;;;4.54;70.65;100444.61;1656365;84;21249;-74
2021/04/14 10:11:38;;;;;;;1.95;0.90;;;;;;;4.59;70.31;100438.52;1649969;85;22128;-74
2021/04/14 10:14:19;;;;;;;1.72;0.90;;;;;;;4.60;70.36;100435.08;1638021;85;21203;-74
2021/04/14 10:16:48;;;;;;;3.30;0.90;;;;;;;4.59;70.24;100441.10;1680078;83;21216;-74
2021/04/14 10:19:29;;;;;;;2.72;1.00;;;;;;;4.53;70.25;100438.59;1670975;84;21494;-75
2021/04/14 10:21:57;;;;;;;1.45;0.88;;;;;;;4.55;70.40;100433.42;1665256;84;21295;-74
2021/04/14 10:24:24;;;;;;;1.37;0.70;;;;;;;4.57;70.25;100432.53;1666439;84;21259;-74
2021/04/14 10:26:55;;;;;;;2.52;0.98;;;;;;;4.58;70.11;100435.52;1669100;84;21204;-74
2021/04/14 10:29:30;;;;;;;1.70;0.80;;;;;;;4.63;70.03;100435.48;1683692;84;21160;-82
2021/04/14 10:31:59;;;;;;;1.25;0.60;;;;;;;4.71;69.76;100426.75;1685830;83;21192;-76
2021/04/14 10:34:34;;;;;;;1.87;0.90;;;;;;;4.78;69.71;100425.38;1687491;83;21303;-73
2021/04/14 10:37:19;;;;;;;1.95;0.88;;;;;;;4.98;70.06;100420.80;1643553;85;22180;-74
2021/04/14 10:39:47;;;;;;;2.92;1.75;;;;;;;5.20;68.79;100420.52;1645462;86;21677;-74
2021/04/14 10:42:22;;;;;;;0.93;0.70;;;;;;;5.34;69.19;100434.12;1675059;84;21235;-73
2021/04/14 10:44:49;;;;;;;1.70;0.80;;;;;;;5.37;65.70;100423.71;1642810;85;21728;-74
2021/04/14 10:47:29;;;;;;;;;;;;;;;5.41;67.46;100435.75;1676796;84;21230;-74
2021/04/14 10:50:16;;;;;;;2.47;0.60;;;;;;;5.49;67.24;100432.61;1667013;83;22134;-74
2021/04/14 10:52:46;;;;;;;2.12;0.70;;;;;;;5.60;66.94;100434.60;1672569;84;21294;-73
2021/04/14 10:55:17;;;;;;;1.92;0.70;;;;;;;5.70;66.34;100431.41;1664052;84;21213;-72
2021/04/14 10:57:48;;;;;;;3.65;0.80;;;;;;;5.89;65.41;100430.67;1665593;84;21708;-74
2021/04/14 11:00:23;;;;;;;2.22;0.72;;;;;;;5.98;65.94;100427.95;1661167;84;21673;-73
2021/04/14 11:02:51;;;;;;;1.82;0.60;;;;;;;6.09;65.95;100424.33;1642321;85;21287;-74
2021/04/14 11:05:22;;;;;;;0.78;0.40;;;;;;;6.41;66.50;100414.23;1670140;84;21221;-74
2021/04/14 11:07:52;;;;;;;0.88;0.50;;;;;;;6.44;63.19;100429.73;1638678;85;21131;-75
2021/04/14 11:10:26;;;;;;;0.90;0.62;;;;;;;6.48;65.16;100426.19;1675824;84;21163;-74
2021/04/14 11:12:55;;;;;;;2.05;0.85;;;;;;;6.58;64.86;100433.78;1649544;85;21647;-77
2021/04/14 11:15:27;;;;;;;0.55;0.45;;;;;;;6.69;62.50;100424.05;1675797;83;21290;-77
2021/04/14 11:18:01;;;;;;;2.15;0.65;;;;;;;6.64;62.72;100424.16;1670993;83;21575;-74
2021/04/14 11:23:35;;;;;;;1.22;0.30;;;;;;;6.82;62.34;100433.75;1791726;78;22789;-73
2021/04/14 11:26:14;;;;;;;0.98;0.47;;;;;;;6.75;63.76;100426.53;1773220;80;21616;-73
2021/04/14 11:28:54;;;;;;;1.32;0.28;;;;;;;6.62;60.31;100439.34;1769725;79;21426;-74
2021/04/14 11:31:41;;;;;;;3.08;1.55;;;;;;;6.43;61.22;100422.81;1767092;79;21092;-73
2021/04/14 11:34:21;;;;;;;;;;;;;;;6.35;60.48;100428.59;1770195;80;21177;-75
2021/04/14 11:37:19;;;;;;;2.55;1.02;;;;;;;6.07;60.24;100431.27;1768799;80;21046;-75
2021/04/14 11:40:00;;;;;;;4.17;2.25;;;;;;;5.97;61.10;100443.55;1769032;80;21085;-74
2021/04/14 11:42:56;;;;;;;1.20;1.00;;;;;;;5.95;61.22;100435.78;1764158;80;21205;-73
2021/04/14 11:45:39;;;;;;;2.10;1.15;;;;;;;6.03;62.75;100437.81;1766685;79;21397;-75
2021/04/14 11:48:16;;;;;;;2.35;1.22;;;;;;;6.01;62.31;100438.27;1770721;80;21222;-74
2021/04/14 11:50:46;;;;;;;3.03;1.03;;;;;;;6.18;62.14;100443.61;1759248;80;21069;-74
2021/04/14 11:53:30;;;;;;;1.42;0.82;;;;;;;6.34;62.41;100435.97;1774279;79;21255;-73
2021/04/14 11:58:47;;;;;;;1.10;0.70;;;;;;;6.48;60.06;100428.77;1795783;78;22809;-72
2021/04/14 12:01:28;;;;;;;1.60;0.57;;;;;;;6.33;61.12;100435.56;1768442;79;22631;-73
2021/04/14 12:03:56;;;;;;;1.15;0.70;;;;;;;6.57;62.38;100434.67;1767890;80;22182;-74
2021/04/14 12:06:23;;;;;;;1.00;0.57;;;;;;;6.68;60.28;100453.48;1769142;79;23233;-72
2021/04/14 12:08:51;;;;;;;1.02;0.70;;;;;;;6.68;61.75;100427.53;1766908;80;21029;-73
2021/04/14 12:11:24;;;;;;;1.10;0.70;;;;;;;6.87;61.98;100431.47;1768449;80;21078;-74